sensor_id;sensor_type;location;lat;lon;timestamp;pressure;altitude;pressure_sealevel;temperature;humidity
7474;BME280;3778;42.572;23.426;2024-02-04T00:02:23;93964.66;;;6.69;61.27
7474;BME280;3778;42.572;23.426;2024-02-04T00:04:50;93981.13;;;6.73;62.31
7474;BME280;3778;42.572;23.426;2024-02-04T00:07:16;93960.31;;;6.69;61.83
7474;BME280;3778;42.572;23.426;2024-02-04T00:09:41;93991.84;;;6.70;62.01
7474;BME280;3778;42.572;23.426;2024-02-04T00:12:09;93974.28;;;6.62;61.97
7474;BME280;3778;42.572;23.426;2024-02-04T00:14:35;93983.16;;;6.59;62.48
7474;BME280;3778;42.572;23.426;2024-02-04T00:17:00;93959.47;;;6.52;62.27
7474;BME280;3778;42.572;23.426;2024-02-04T00:19:26;93958.28;;;6.43;62.16
7474;BME280;3778;42.572;23.426;2024-02-04T00:21:52;93965.63;;;6.39;62.77
7474;BME280;3778;42.572;23.426;2024-02-04T00:24:18;93952.97;;;6.33;63.00
7474;BME280;3778;42.572;23.426;2024-02-04T00:26:44;93957.84;;;6.34;63.06
7474;BME280;3778;42.572;23.426;2024-02-04T00:29:10;93957.31;;;6.32;62.29
7474;BME280;3778;42.572;23.426;2024-02-04T00:31:35;93956.97;;;6.29;62.72
7474;BME280;3778;42.572;23.426;2024-02-04T00:34:00;93962.22;;;6.22;62.12
7474;BME280;3778;42.572;23.426;2024-02-04T00:36:26;93963.03;;;5.99;61.54
7474;BME280;3778;42.572;23.426;2024-02-04T00:38:52;93965.91;;;5.79;61.79
7474;BME280;3778;42.572;23.426;2024-02-04T00:41:17;93964.78;;;5.40;62.69
7474;BME280;3778;42.572;23.426;2024-02-04T00:43:43;93968.94;;;5.11;61.69
7474;BME280;3778;42.572;23.426;2024-02-04T00:46:08;93975.03;;;4.50;62.07
7474;BME280;3778;42.572;23.426;2024-02-04T00:48:36;93977.28;;;3.85;64.96
7474;BME280;3778;42.572;23.426;2024-02-04T00:51:02;93978.44;;;3.89;66.00
7474;BME280;3778;42.572;23.426;2024-02-04T00:53:28;93982.44;;;3.78;65.37
7474;BME280;3778;42.572;23.426;2024-02-04T00:56:00;93993.66;;;3.45;67.85
7474;BME280;3778;42.572;23.426;2024-02-04T00:58:25;93988.34;;;3.29;67.82
7474;BME280;3778;42.572;23.426;2024-02-04T01:00:51;93993.16;;;3.37;69.12
7474;BME280;3778;42.572;23.426;2024-02-04T01:03:16;93989.78;;;3.43;67.57
7474;BME280;3778;42.572;23.426;2024-02-04T01:05:42;93986.72;;;3.34;69.04
7474;BME280;3778;42.572;23.426;2024-02-04T01:08:07;93996.03;;;3.47;68.31
7474;BME280;3778;42.572;23.426;2024-02-04T01:10:33;93986.91;;;3.58;69.81
7474;BME280;3778;42.572;23.426;2024-02-04T01:12:58;93968.88;;;3.59;67.59
7474;BME280;3778;42.572;23.426;2024-02-04T01:15:23;93986.50;;;3.61;68.95
7474;BME280;3778;42.572;23.426;2024-02-04T01:17:50;93980.25;;;4.00;70.12
7474;BME280;3778;42.572;23.426;2024-02-04T01:20:17;93976.16;;;4.36;69.60
7474;BME280;3778;42.572;23.426;2024-02-04T01:22:43;93986.19;;;4.37;67.13
7474;BME280;3778;42.572;23.426;2024-02-04T01:25:08;93986.44;;;4.11;67.47
7474;BME280;3778;42.572;23.426;2024-02-04T01:27:34;93986.22;;;4.12;67.68
7474;BME280;3778;42.572;23.426;2024-02-04T01:29:59;93993.38;;;4.03;68.04
7474;BME280;3778;42.572;23.426;2024-02-04T01:32:25;93984.25;;;3.96;67.20
7474;BME280;3778;42.572;23.426;2024-02-04T01:34:50;93976.16;;;3.99;69.32
7474;BME280;3778;42.572;23.426;2024-02-04T01:37:15;93983.78;;;3.81;68.61
7474;BME280;3778;42.572;23.426;2024-02-04T01:39:41;93977.56;;;3.76;67.69
7474;BME280;3778;42.572;23.426;2024-02-04T01:42:06;93974.47;;;3.68;68.27
7474;BME280;3778;42.572;23.426;2024-02-04T01:44:32;93977.38;;;3.53;73.07
7474;BME280;3778;42.572;23.426;2024-02-04T01:46:57;93964.75;;;3.83;72.55
7474;BME280;3778;42.572;23.426;2024-02-04T01:49:23;93961.91;;;3.73;68.84
7474;BME280;3778;42.572;23.426;2024-02-04T01:51:49;93970.38;;;3.67;68.05
7474;BME280;3778;42.572;23.426;2024-02-04T01:54:15;93969.56;;;3.48;69.03
7474;BME280;3778;42.572;23.426;2024-02-04T01:56:41;93966.44;;;3.46;68.85
7474;BME280;3778;42.572;23.426;2024-02-04T01:59:07;93959.38;;;3.48;69.18
7474;BME280;3778;42.572;23.426;2024-02-04T02:01:33;93963.97;;;3.58;68.67
7474;BME280;3778;42.572;23.426;2024-02-04T02:03:59;93965.25;;;3.48;69.34
7474;BME280;3778;42.572;23.426;2024-02-04T02:06:27;93960.38;;;3.47;69.15
7474;BME280;3778;42.572;23.426;2024-02-04T02:08:53;93958.38;;;3.49;69.24
7474;BME280;3778;42.572;23.426;2024-02-04T02:11:54;93947.91;;;3.57;69.50
7474;BME280;3778;42.572;23.426;2024-02-04T02:14:28;93947.44;;;3.67;70.54
7474;BME280;3778;42.572;23.426;2024-02-04T02:16:57;93943.78;;;3.81;68.72
7474;BME280;3778;42.572;23.426;2024-02-04T02:23:01;93936.56;;;3.78;69.40
7474;BME280;3778;42.572;23.426;2024-02-04T02:25:18;93945.09;;;3.65;68.79
7474;BME280;3778;42.572;23.426;2024-02-04T02:27:49;93944.97;;;3.60;70.71
7474;BME280;3778;42.572;23.426;2024-02-04T02:30:16;93936.75;;;3.58;69.46
7474;BME280;3778;42.572;23.426;2024-02-04T02:32:43;93942.56;;;3.65;70.90
7474;BME280;3778;42.572;23.426;2024-02-04T02:35:10;93949.38;;;3.90;70.29
7474;BME280;3778;42.572;23.426;2024-02-04T02:37:46;93943.78;;;3.99;69.45
7474;BME280;3778;42.572;23.426;2024-02-04T02:40:32;93939.38;;;3.88;69.96
7474;BME280;3778;42.572;23.426;2024-02-04T02:43:01;93942.16;;;3.87;68.67
7474;BME280;3778;42.572;23.426;2024-02-04T02:45:28;93942.00;;;3.82;69.15
7474;BME280;3778;42.572;23.426;2024-02-04T02:47:54;93938.81;;;3.86;70.64
7474;BME280;3778;42.572;23.426;2024-02-04T02:50:20;93940.19;;;3.89;70.62
7474;BME280;3778;42.572;23.426;2024-02-04T02:52:46;93940.22;;;3.82;69.50
7474;BME280;3778;42.572;23.426;2024-02-04T02:55:11;93940.81;;;3.84;70.76
7474;BME280;3778;42.572;23.426;2024-02-04T02:57:37;93934.28;;;3.88;70.94
7474;BME280;3778;42.572;23.426;2024-02-04T03:00:03;93937.81;;;3.87;71.06
7474;BME280;3778;42.572;23.426;2024-02-04T03:02:31;93923.44;;;3.74;70.22
7474;BME280;3778;42.572;23.426;2024-02-04T03:04:56;93931.31;;;3.73;70.81
7474;BME280;3778;42.572;23.426;2024-02-04T03:07:21;93926.63;;;3.70;71.25
7474;BME280;3778;42.572;23.426;2024-02-04T03:09:47;93915.38;;;3.59;70.25
7474;BME280;3778;42.572;23.426;2024-02-04T03:12:13;93910.47;;;3.58;72.16
7474;BME280;3778;42.572;23.426;2024-02-04T03:14:38;93914.09;;;3.68;70.68
7474;BME280;3778;42.572;23.426;2024-02-04T03:17:04;93924.44;;;3.73;71.83
7474;BME280;3778;42.572;23.426;2024-02-04T03:19:29;93926.06;;;3.68;70.48
7474;BME280;3778;42.572;23.426;2024-02-04T03:21:54;93918.56;;;3.73;72.47
7474;BME280;3778;42.572;23.426;2024-02-04T03:24:20;93924.94;;;3.82;72.07
7474;BME280;3778;42.572;23.426;2024-02-04T03:26:45;93924.59;;;3.97;71.30
7474;BME280;3778;42.572;23.426;2024-02-04T03:29:11;93923.38;;;3.99;70.69
7474;BME280;3778;42.572;23.426;2024-02-04T03:31:36;93903.50;;;3.90;71.76
7474;BME280;3778;42.572;23.426;2024-02-04T03:34:02;93908.78;;;3.88;70.73
7474;BME280;3778;42.572;23.426;2024-02-04T03:36:27;93907.81;;;3.89;70.62
7474;BME280;3778;42.572;23.426;2024-02-04T03:38:53;93906.19;;;3.95;71.75
7474;BME280;3778;42.572;23.426;2024-02-04T03:41:18;93909.91;;;3.74;71.45
7474;BME280;3778;42.572;23.426;2024-02-04T03:43:44;93902.78;;;3.83;72.81
7474;BME280;3778;42.572;23.426;2024-02-04T03:46:16;93911.28;;;3.95;72.05
7474;BME280;3778;42.572;23.426;2024-02-04T03:48:42;93918.28;;;3.99;70.71
7474;BME280;3778;42.572;23.426;2024-02-04T03:51:08;93904.91;;;4.04;72.10
7474;BME280;3778;42.572;23.426;2024-02-04T03:53:33;93894.91;;;4.21;71.35
7474;BME280;3778;42.572;23.426;2024-02-04T03:55:59;93885.94;;;4.30;70.55
7474;BME280;3778;42.572;23.426;2024-02-04T03:58:24;93882.41;;;4.31;70.04
7474;BME280;3778;42.572;23.426;2024-02-04T04:00:58;93887.38;;;4.26;71.21
7474;BME280;3778;42.572;23.426;2024-02-04T04:03:24;93888.94;;;4.27;71.28
7474;BME280;3778;42.572;23.426;2024-02-04T04:05:50;93891.25;;;4.28;70.18
7474;BME280;3778;42.572;23.426;2024-02-04T04:08:16;93883.38;;;4.30;69.99
7474;BME280;3778;42.572;23.426;2024-02-04T04:10:42;93897.91;;;4.29;70.99
7474;BME280;3778;42.572;23.426;2024-02-04T04:13:08;93896.09;;;4.00;71.99
7474;BME280;3778;42.572;23.426;2024-02-04T04:15:33;93902.72;;;3.89;70.71
7474;BME280;3778;42.572;23.426;2024-02-04T04:17:58;93898.88;;;3.80;72.61
7474;BME280;3778;42.572;23.426;2024-02-04T04:20:24;93917.28;;;3.82;72.48
7474;BME280;3778;42.572;23.426;2024-02-04T04:22:49;93903.19;;;3.80;72.87
7474;BME280;3778;42.572;23.426;2024-02-04T04:25:15;93912.78;;;3.84;73.35
7474;BME280;3778;42.572;23.426;2024-02-04T04:27:42;93897.69;;;3.83;73.77
7474;BME280;3778;42.572;23.426;2024-02-04T04:30:07;93909.66;;;4.00;73.79
7474;BME280;3778;42.572;23.426;2024-02-04T04:32:34;93892.13;;;4.52;75.17
7474;BME280;3778;42.572;23.426;2024-02-04T04:34:59;93896.81;;;4.86;73.24
7474;BME280;3778;42.572;23.426;2024-02-04T04:37:25;93902.81;;;5.03;72.33
7474;BME280;3778;42.572;23.426;2024-02-04T04:39:51;93912.53;;;5.36;72.87
7474;BME280;3778;42.572;23.426;2024-02-04T04:42:16;93911.88;;;5.52;72.61
7474;BME280;3778;42.572;23.426;2024-02-04T04:44:42;93915.97;;;5.88;71.27
7474;BME280;3778;42.572;23.426;2024-02-04T04:47:07;93904.34;;;6.33;70.85
7474;BME280;3778;42.572;23.426;2024-02-04T04:49:33;93902.63;;;6.67;69.00
7474;BME280;3778;42.572;23.426;2024-02-04T04:51:58;93927.38;;;6.90;68.94
7474;BME280;3778;42.572;23.426;2024-02-04T04:54:24;93912.97;;;7.34;67.73
7474;BME280;3778;42.572;23.426;2024-02-04T04:56:49;93903.41;;;7.46;67.70
7474;BME280;3778;42.572;23.426;2024-02-04T04:59:15;93901.69;;;7.52;67.11
7474;BME280;3778;42.572;23.426;2024-02-04T05:01:48;93893.69;;;7.48;66.57
7474;BME280;3778;42.572;23.426;2024-02-04T05:04:14;93905.66;;;7.43;66.54
7474;BME280;3778;42.572;23.426;2024-02-04T05:06:40;93909.53;;;7.45;66.08
7474;BME280;3778;42.572;23.426;2024-02-04T05:09:05;93902.41;;;7.47;66.12
7474;BME280;3778;42.572;23.426;2024-02-04T05:11:31;93908.56;;;7.46;66.50
7474;BME280;3778;42.572;23.426;2024-02-04T05:13:56;93900.44;;;7.55;65.35
7474;BME280;3778;42.572;23.426;2024-02-04T05:16:22;93917.78;;;7.47;64.57
7474;BME280;3778;42.572;23.426;2024-02-04T05:18:47;93901.75;;;7.57;64.84
7474;BME280;3778;42.572;23.426;2024-02-04T05:21:13;93889.59;;;7.47;64.65
7474;BME280;3778;42.572;23.426;2024-02-04T05:23:38;93911.66;;;7.48;64.25
7474;BME280;3778;42.572;23.426;2024-02-04T05:26:04;93901.38;;;7.48;64.70
7474;BME280;3778;42.572;23.426;2024-02-04T05:28:30;93912.75;;;7.52;64.42
7474;BME280;3778;42.572;23.426;2024-02-04T05:30:56;93906.81;;;7.52;63.78
7474;BME280;3778;42.572;23.426;2024-02-04T05:33:21;93925.25;;;7.49;63.99
7474;BME280;3778;42.572;23.426;2024-02-04T05:35:47;93921.97;;;7.53;64.20
7474;BME280;3778;42.572;23.426;2024-02-04T05:38:12;93920.03;;;7.61;63.69
7474;BME280;3778;42.572;23.426;2024-02-04T05:40:38;93923.91;;;7.63;63.30
7474;BME280;3778;42.572;23.426;2024-02-04T05:43:03;93921.81;;;7.60;63.57
7474;BME280;3778;42.572;23.426;2024-02-04T05:45:38;93906.13;;;7.57;63.69
7474;BME280;3778;42.572;23.426;2024-02-04T05:48:09;93915.69;;;7.61;62.89
7474;BME280;3778;42.572;23.426;2024-02-04T05:50:35;93904.13;;;7.80;62.55
7474;BME280;3778;42.572;23.426;2024-02-04T05:53:02;93913.56;;;7.75;62.72
7474;BME280;3778;42.572;23.426;2024-02-04T05:55:28;93919.00;;;7.78;62.39
7474;BME280;3778;42.572;23.426;2024-02-04T05:57:54;93925.25;;;7.88;62.24
7474;BME280;3778;42.572;23.426;2024-02-04T06:00:19;93906.59;;;7.92;61.46
7474;BME280;3778;42.572;23.426;2024-02-04T06:02:45;93906.34;;;7.94;62.10
7474;BME280;3778;42.572;23.426;2024-02-04T06:05:11;93905.50;;;7.88;61.97
7474;BME280;3778;42.572;23.426;2024-02-04T06:07:37;93921.94;;;7.87;62.43
7474;BME280;3778;42.572;23.426;2024-02-04T06:10:03;93921.63;;;7.84;62.19
7474;BME280;3778;42.572;23.426;2024-02-04T06:12:29;93940.44;;;7.89;62.43
7474;BME280;3778;42.572;23.426;2024-02-04T06:14:55;93928.31;;;7.85;62.31
7474;BME280;3778;42.572;23.426;2024-02-04T06:17:20;93926.22;;;7.82;62.55
7474;BME280;3778;42.572;23.426;2024-02-04T06:19:46;93947.81;;;7.86;61.97
7474;BME280;3778;42.572;23.426;2024-02-04T06:22:11;93933.06;;;7.76;62.50
7474;BME280;3778;42.572;23.426;2024-02-04T06:24:37;93943.88;;;7.78;62.09
7474;BME280;3778;42.572;23.426;2024-02-04T06:27:04;93941.06;;;7.79;62.18
7474;BME280;3778;42.572;23.426;2024-02-04T06:29:30;93945.19;;;7.80;62.04
7474;BME280;3778;42.572;23.426;2024-02-04T06:31:55;93933.63;;;7.78;62.27
7474;BME280;3778;42.572;23.426;2024-02-04T06:34:21;93950.81;;;7.77;62.52
7474;BME280;3778;42.572;23.426;2024-02-04T06:36:46;93959.50;;;7.76;61.94
7474;BME280;3778;42.572;23.426;2024-02-04T06:39:12;93964.09;;;7.74;62.41
7474;BME280;3778;42.572;23.426;2024-02-04T06:41:38;93964.94;;;7.80;62.64
7474;BME280;3778;42.572;23.426;2024-02-04T06:44:03;93975.19;;;7.80;62.29
7474;BME280;3778;42.572;23.426;2024-02-04T06:46:29;93961.59;;;7.79;61.83
7474;BME280;3778;42.572;23.426;2024-02-04T06:48:55;93965.72;;;7.80;61.45
7474;BME280;3778;42.572;23.426;2024-02-04T06:51:21;93955.84;;;7.89;59.84
7474;BME280;3778;42.572;23.426;2024-02-04T06:53:46;93974.88;;;7.93;60.88
7474;BME280;3778;42.572;23.426;2024-02-04T06:56:12;93978.22;;;7.94;61.16
7474;BME280;3778;42.572;23.426;2024-02-04T06:58:38;93960.81;;;7.96;61.16
7474;BME280;3778;42.572;23.426;2024-02-04T07:01:03;93965.69;;;7.97;60.21
7474;BME280;3778;42.572;23.426;2024-02-04T07:03:29;93965.22;;;8.00;60.56
7474;BME280;3778;42.572;23.426;2024-02-04T07:05:55;93959.78;;;7.97;60.41
7474;BME280;3778;42.572;23.426;2024-02-04T07:08:20;93954.94;;;8.00;60.29
7474;BME280;3778;42.572;23.426;2024-02-04T07:10:46;93969.88;;;8.03;59.07
7474;BME280;3778;42.572;23.426;2024-02-04T07:13:11;93971.75;;;8.08;58.94
7474;BME280;3778;42.572;23.426;2024-02-04T07:15:37;93953.00;;;8.07;59.57
7474;BME280;3778;42.572;23.426;2024-02-04T07:18:03;93985.59;;;8.07;58.46
7474;BME280;3778;42.572;23.426;2024-02-04T07:20:28;93958.81;;;8.20;57.77
7474;BME280;3778;42.572;23.426;2024-02-04T07:22:54;93974.03;;;8.26;58.12
7474;BME280;3778;42.572;23.426;2024-02-04T07:25:19;93955.06;;;8.27;58.21
7474;BME280;3778;42.572;23.426;2024-02-04T07:27:45;93948.84;;;8.23;58.91
7474;BME280;3778;42.572;23.426;2024-02-04T07:30:11;93954.28;;;8.27;58.03
7474;BME280;3778;42.572;23.426;2024-02-04T07:32:36;93948.03;;;8.40;57.33
7474;BME280;3778;42.572;23.426;2024-02-04T07:35:02;93945.16;;;8.36;57.48
7474;BME280;3778;42.572;23.426;2024-02-04T07:37:28;93945.22;;;8.41;56.99
7474;BME280;3778;42.572;23.426;2024-02-04T07:39:53;93963.34;;;8.51;56.53
7474;BME280;3778;42.572;23.426;2024-02-04T07:42:18;93949.78;;;8.56;56.92
7474;BME280;3778;42.572;23.426;2024-02-04T07:44:44;93949.72;;;8.51;57.05
7474;BME280;3778;42.572;23.426;2024-02-04T07:47:09;93943.31;;;8.53;56.12
7474;BME280;3778;42.572;23.426;2024-02-04T07:49:35;93950.38;;;8.63;56.21
7474;BME280;3778;42.572;23.426;2024-02-04T07:52:00;93958.84;;;8.64;57.27
7474;BME280;3778;42.572;23.426;2024-02-04T07:54:25;93950.56;;;8.56;56.62
7474;BME280;3778;42.572;23.426;2024-02-04T07:56:51;93945.88;;;8.53;56.29
7474;BME280;3778;42.572;23.426;2024-02-04T07:59:16;93958.72;;;8.53;55.61
7474;BME280;3778;42.572;23.426;2024-02-04T08:01:41;93944.16;;;8.59;54.59
7474;BME280;3778;42.572;23.426;2024-02-04T08:04:07;93942.34;;;8.59;55.08
7474;BME280;3778;42.572;23.426;2024-02-04T08:06:35;93938.53;;;8.62;55.31
7474;BME280;3778;42.572;23.426;2024-02-04T08:09:02;93933.75;;;8.71;54.79
7474;BME280;3778;42.572;23.426;2024-02-04T08:11:28;93941.63;;;8.86;55.25
7474;BME280;3778;42.572;23.426;2024-02-04T08:13:53;93934.09;;;9.06;53.85
7474;BME280;3778;42.572;23.426;2024-02-04T08:16:19;93938.78;;;9.14;53.49
7474;BME280;3778;42.572;23.426;2024-02-04T08:18:45;93949.00;;;9.09;53.60
7474;BME280;3778;42.572;23.426;2024-02-04T08:21:11;93933.97;;;9.23;53.09
7474;BME280;3778;42.572;23.426;2024-02-04T08:23:36;93936.25;;;9.20;52.75
7474;BME280;3778;42.572;23.426;2024-02-04T08:26:02;93927.47;;;9.16;52.84
7474;BME280;3778;42.572;23.426;2024-02-04T08:28:27;93933.22;;;9.28;52.18
7474;BME280;3778;42.572;23.426;2024-02-04T08:30:53;93945.72;;;9.46;51.43
7474;BME280;3778;42.572;23.426;2024-02-04T08:33:18;93957.13;;;9.55;51.16
7474;BME280;3778;42.572;23.426;2024-02-04T08:35:44;93950.91;;;9.51;50.74
7474;BME280;3778;42.572;23.426;2024-02-04T08:38:09;93958.09;;;9.49;51.60
7474;BME280;3778;42.572;23.426;2024-02-04T08:40:34;93939.06;;;9.50;51.32
7474;BME280;3778;42.572;23.426;2024-02-04T08:43:00;93936.78;;;9.54;51.92
7474;BME280;3778;42.572;23.426;2024-02-04T08:45:25;93934.22;;;9.54;51.44
7474;BME280;3778;42.572;23.426;2024-02-04T08:47:51;93936.78;;;9.54;51.72
7474;BME280;3778;42.572;23.426;2024-02-04T08:50:16;93959.19;;;9.53;51.56
7474;BME280;3778;42.572;23.426;2024-02-04T08:52:42;93954.50;;;9.50;51.44
7474;BME280;3778;42.572;23.426;2024-02-04T08:55:07;93944.19;;;9.45;52.39
7474;BME280;3778;42.572;23.426;2024-02-04T08:57:34;93953.66;;;9.39;52.33
7474;BME280;3778;42.572;23.426;2024-02-04T08:59:59;93937.41;;;9.34;52.47
7474;BME280;3778;42.572;23.426;2024-02-04T09:02:24;93944.59;;;9.32;52.98
7474;BME280;3778;42.572;23.426;2024-02-04T09:04:50;93958.16;;;9.22;53.49
7474;BME280;3778;42.572;23.426;2024-02-04T09:07:15;93959.69;;;9.23;53.80
7474;BME280;3778;42.572;23.426;2024-02-04T09:09:40;93974.31;;;9.18;54.49
7474;BME280;3778;42.572;23.426;2024-02-04T09:12:08;93965.03;;;9.17;54.67
7474;BME280;3778;42.572;23.426;2024-02-04T09:14:33;93961.41;;;9.12;55.07
7474;BME280;3778;42.572;23.426;2024-02-04T09:16:58;93957.59;;;9.20;55.34
7474;BME280;3778;42.572;23.426;2024-02-04T09:19:24;93968.19;;;9.24;55.40
7474;BME280;3778;42.572;23.426;2024-02-04T09:21:49;93972.31;;;9.25;55.64
7474;BME280;3778;42.572;23.426;2024-02-04T09:24:15;93974.19;;;9.34;55.92
7474;BME280;3778;42.572;23.426;2024-02-04T09:26:40;93948.97;;;9.31;55.62
7474;BME280;3778;42.572;23.426;2024-02-04T09:29:06;93976.69;;;9.24;55.86
7474;BME280;3778;42.572;23.426;2024-02-04T09:31:31;93965.88;;;9.27;55.87
7474;BME280;3778;42.572;23.426;2024-02-04T09:33:56;93957.56;;;9.15;56.26
7474;BME280;3778;42.572;23.426;2024-02-04T09:36:22;93992.25;;;9.12;56.08
7474;BME280;3778;42.572;23.426;2024-02-04T09:38:48;94011.84;;;9.19;55.92
7474;BME280;3778;42.572;23.426;2024-02-04T09:41:13;94006.97;;;9.17;56.00
7474;BME280;3778;42.572;23.426;2024-02-04T09:43:39;94009.47;;;9.12;56.31
7474;BME280;3778;42.572;23.426;2024-02-04T09:46:06;93976.88;;;9.18;56.21
7474;BME280;3778;42.572;23.426;2024-02-04T09:48:32;93993.34;;;9.22;55.96
7474;BME280;3778;42.572;23.426;2024-02-04T09:50:58;93981.81;;;9.24;56.07
7474;BME280;3778;42.572;23.426;2024-02-04T09:53:33;93969.84;;;9.35;56.33
7474;BME280;3778;42.572;23.426;2024-02-04T09:56:03;93958.25;;;9.70;55.34
7474;BME280;3778;42.572;23.426;2024-02-04T09:58:31;93990.72;;;9.76;54.90
7474;BME280;3778;42.572;23.426;2024-02-04T10:00:57;93970.47;;;9.84;54.05
7474;BME280;3778;42.572;23.426;2024-02-04T10:03:22;93986.91;;;9.78;54.54
7474;BME280;3778;42.572;23.426;2024-02-04T10:05:48;93993.66;;;9.89;54.28
7474;BME280;3778;42.572;23.426;2024-02-04T10:08:14;93974.13;;;9.93;53.62
7474;BME280;3778;42.572;23.426;2024-02-04T10:10:40;93954.28;;;9.89;53.56
7474;BME280;3778;42.572;23.426;2024-02-04T10:13:08;93979.00;;;9.90;53.74
7474;BME280;3778;42.572;23.426;2024-02-04T10:15:34;93989.81;;;9.92;54.24
7474;BME280;3778;42.572;23.426;2024-02-04T10:18:03;93986.84;;;9.73;54.10
7474;BME280;3778;42.572;23.426;2024-02-04T10:20:29;93971.06;;;9.64;54.81
7474;BME280;3778;42.572;23.426;2024-02-04T10:22:54;93988.22;;;9.86;54.80
7474;BME280;3778;42.572;23.426;2024-02-04T10:25:20;94010.53;;;9.75;54.87
7474;BME280;3778;42.572;23.426;2024-02-04T10:27:46;94026.59;;;9.55;55.50
7474;BME280;3778;42.572;23.426;2024-02-04T10:30:12;94004.03;;;9.35;56.26
7474;BME280;3778;42.572;23.426;2024-02-04T10:32:39;93994.91;;;9.50;55.80
7474;BME280;3778;42.572;23.426;2024-02-04T10:35:05;93998.59;;;9.59;55.05
7474;BME280;3778;42.572;23.426;2024-02-04T10:37:30;93989.59;;;9.61;55.65
7474;BME280;3778;42.572;23.426;2024-02-04T10:39:55;93979.34;;;9.66;55.23
7474;BME280;3778;42.572;23.426;2024-02-04T10:42:24;93968.53;;;9.70;55.60
7474;BME280;3778;42.572;23.426;2024-02-04T10:44:54;93956.22;;;9.72;55.34
7474;BME280;3778;42.572;23.426;2024-02-04T10:47:22;93971.44;;;9.78;55.71
7474;BME280;3778;42.572;23.426;2024-02-04T10:49:52;93962.97;;;9.78;55.75
7474;BME280;3778;42.572;23.426;2024-02-04T10:52:22;93959.78;;;9.71;56.37
7474;BME280;3778;42.572;23.426;2024-02-04T10:54:51;93963.94;;;9.77;55.90
7474;BME280;3778;42.572;23.426;2024-02-04T10:57:20;93963.66;;;9.68;56.16
7474;BME280;3778;42.572;23.426;2024-02-04T10:59:52;93973.47;;;9.71;55.92
7474;BME280;3778;42.572;23.426;2024-02-04T11:02:19;93969.09;;;9.77;56.53
7474;BME280;3778;42.572;23.426;2024-02-04T11:04:45;93953.94;;;9.80;56.24
7474;BME280;3778;42.572;23.426;2024-02-04T11:07:13;93958.31;;;9.80;56.43
7474;BME280;3778;42.572;23.426;2024-02-04T11:09:39;93961.16;;;9.78;56.04
7474;BME280;3778;42.572;23.426;2024-02-04T11:12:11;93955.78;;;9.85;55.63
7474;BME280;3778;42.572;23.426;2024-02-04T11:14:39;93939.84;;;9.88;55.69
7474;BME280;3778;42.572;23.426;2024-02-04T11:27:44;93935.81;;;10.02;54.52
7474;BME280;3778;42.572;23.426;2024-02-04T11:30:10;93915.19;;;9.97;54.10
7474;BME280;3778;42.572;23.426;2024-02-04T11:32:36;93934.25;;;9.96;54.56
7474;BME280;3778;42.572;23.426;2024-02-04T11:35:02;93957.84;;;9.88;55.04
7474;BME280;3778;42.572;23.426;2024-02-04T11:37:28;93954.28;;;9.89;55.23
7474;BME280;3778;42.572;23.426;2024-02-04T11:39:55;93954.47;;;9.77;55.28
7474;BME280;3778;42.572;23.426;2024-02-04T11:42:31;93952.66;;;9.78;55.24
7474;BME280;3778;42.572;23.426;2024-02-04T11:45:07;93945.78;;;9.93;55.72
7474;BME280;3778;42.572;23.426;2024-02-04T11:47:33;93939.69;;;10.05;55.56
7474;BME280;3778;42.572;23.426;2024-02-04T11:49:59;93946.16;;;10.12;55.63
7474;BME280;3778;42.572;23.426;2024-02-04T11:52:27;93952.53;;;10.00;54.96
7474;BME280;3778;42.572;23.426;2024-02-04T11:54:53;93957.41;;;9.96;55.17
7474;BME280;3778;42.572;23.426;2024-02-04T11:57:19;93952.75;;;9.93;54.17
7474;BME280;3778;42.572;23.426;2024-02-04T11:59:46;93941.13;;;9.85;54.79
7474;BME280;3778;42.572;23.426;2024-02-04T12:02:12;93948.84;;;9.85;55.19
7474;BME280;3778;42.572;23.426;2024-02-04T12:04:40;93930.75;;;10.23;54.67
7474;BME280;3778;42.572;23.426;2024-02-04T12:07:06;93922.69;;;10.56;53.00
7474;BME280;3778;42.572;23.426;2024-02-04T12:09:32;93908.31;;;10.81;52.59
7474;BME280;3778;42.572;23.426;2024-02-04T12:11:57;93912.69;;;10.75;52.78
7474;BME280;3778;42.572;23.426;2024-02-04T12:14:23;93911.66;;;10.91;51.99
7474;BME280;3778;42.572;23.426;2024-02-04T12:16:48;93909.84;;;10.82;53.08
7474;BME280;3778;42.572;23.426;2024-02-04T12:19:14;93905.22;;;10.84;52.36
7474;BME280;3778;42.572;23.426;2024-02-04T12:21:39;93908.03;;;10.62;52.26
7474;BME280;3778;42.572;23.426;2024-02-04T12:24:05;93899.22;;;10.53;52.69
7474;BME280;3778;42.572;23.426;2024-02-04T12:26:31;93897.94;;;10.50;52.15
7474;BME280;3778;42.572;23.426;2024-02-04T12:28:56;93891.25;;;10.59;51.54
7474;BME280;3778;42.572;23.426;2024-02-04T12:31:26;93886.41;;;10.88;50.74
7474;BME280;3778;42.572;23.426;2024-02-04T12:33:59;93895.97;;;11.03;50.37
7474;BME280;3778;42.572;23.426;2024-02-04T12:36:26;93906.56;;;11.12;49.36
7474;BME280;3778;42.572;23.426;2024-02-04T12:38:59;93901.66;;;11.25;49.77
7474;BME280;3778;42.572;23.426;2024-02-04T12:41:28;93879.63;;;11.99;48.82
7474;BME280;3778;42.572;23.426;2024-02-04T12:43:56;93890.78;;;11.90;46.73
7474;BME280;3778;42.572;23.426;2024-02-04T12:46:22;93875.00;;;12.01;47.86
7474;BME280;3778;42.572;23.426;2024-02-04T12:48:52;93870.56;;;12.67;45.23
7474;BME280;3778;42.572;23.426;2024-02-04T12:51:29;93882.72;;;13.10;44.90
7474;BME280;3778;42.572;23.426;2024-02-04T12:54:01;93869.72;;;12.81;44.17
7474;BME280;3778;42.572;23.426;2024-02-04T12:56:27;93877.34;;;13.02;44.08
7474;BME280;3778;42.572;23.426;2024-02-04T12:58:52;93863.53;;;12.77;44.11
7474;BME280;3778;42.572;23.426;2024-02-04T13:01:17;93878.75;;;12.79;42.99
7474;BME280;3778;42.572;23.426;2024-02-04T13:03:43;93889.50;;;11.77;45.62
7474;BME280;3778;42.572;23.426;2024-02-04T13:06:08;93883.84;;;11.09;47.91
7474;BME280;3778;42.572;23.426;2024-02-04T13:08:34;93912.72;;;11.87;45.68
7474;BME280;3778;42.572;23.426;2024-02-04T13:10:59;93875.38;;;12.34;45.62
7474;BME280;3778;42.572;23.426;2024-02-04T13:13:26;93888.66;;;12.07;46.04
7474;BME280;3778;42.572;23.426;2024-02-04T13:15:53;93886.75;;;12.33;44.26
7474;BME280;3778;42.572;23.426;2024-02-04T13:18:19;93887.66;;;11.98;45.44
7474;BME280;3778;42.572;23.426;2024-02-04T13:20:44;93909.38;;;11.81;46.84
7474;BME280;3778;42.572;23.426;2024-02-04T13:23:11;93905.38;;;12.30;45.78
7474;BME280;3778;42.572;23.426;2024-02-04T13:25:37;93875.88;;;12.36;45.57
7474;BME280;3778;42.572;23.426;2024-02-04T13:28:02;93885.38;;;11.66;46.66
7474;BME280;3778;42.572;23.426;2024-02-04T13:30:28;93887.22;;;11.24;47.80